createdAt,value
2018-07-20T00:00:16.752Z,94.40
2018-07-20T00:01:16.773Z,216.30
2018-07-20T00:02:16.822Z,141.30
2018-07-20T00:03:16.860Z,71.60
2018-07-20T00:04:16.913Z,106.30
2018-07-20T00:05:16.949Z,109.60
2018-07-20T00:06:16.994Z,111.90
2018-07-20T00:07:17.066Z,134.50
2018-07-20T00:08:17.092Z,144.50
2018-07-20T00:09:17.170Z,111.60
2018-07-20T00:10:17.186Z,113.80
2018-07-20T00:11:17.213Z,118.20
2018-07-20T00:12:17.291Z,105.70
2018-07-20T00:13:17.334Z,89.00
2018-07-20T00:14:17.370Z,89.40
2018-07-20T00:15:17.424Z,81.20
2018-07-20T00:16:17.443Z,91.80
2018-07-20T00:17:17.569Z,91.10
2018-07-20T00:18:17.541Z,85.40
2018-07-20T00:19:17.628Z,113.10
2018-07-20T00:20:17.675Z,101.20
2018-07-20T00:21:17.685Z,115.50
2018-07-20T00:22:17.775Z,115.20
2018-07-20T00:23:17.779Z,97.70
2018-07-20T00:24:17.860Z,92.70
2018-07-20T00:25:17.881Z,110.40
2018-07-20T00:26:17.976Z,84.10
2018-07-20T00:27:17.952Z,101.80
2018-07-20T00:28:18.085Z,89.60
2018-07-20T00:29:18.080Z,97.00
2018-07-20T00:30:18.109Z,117.70
2018-07-20T00:31:18.170Z,82.10
2018-07-20T00:32:18.208Z,57.40
2018-07-20T00:33:18.233Z,119.40
2018-07-20T00:34:18.313Z,93.30
2018-07-20T00:35:18.335Z,77.40
2018-07-20T00:36:18.440Z,117.00
2018-07-20T00:37:18.426Z,96.30
2018-07-20T00:38:18.475Z,117.00
2018-07-20T00:39:18.519Z,63.90
2018-07-20T00:40:20.080Z,133.30
2018-07-20T00:41:18.652Z,85.20
2018-07-20T00:42:18.675Z,86.70
2018-07-20T00:43:18.770Z,74.40
2018-07-20T00:44:18.755Z,87.40
2018-07-20T00:45:18.810Z,95.10
2018-07-20T00:46:18.866Z,94.90
2018-07-20T00:47:18.881Z,55.20
2018-07-20T00:48:18.961Z,72.20
2018-07-20T00:49:18.984Z,75.80
2018-07-20T00:50:19.034Z,66.00
2018-07-20T00:51:19.151Z,54.40
2018-07-20T00:52:19.108Z,58.30
2018-07-20T00:53:19.152Z,84.30
2018-07-20T00:54:19.184Z,60.70
2018-07-20T00:55:19.274Z,79.80
2018-07-20T00:56:19.311Z,70.00
2018-07-20T00:57:19.367Z,67.00
2018-07-20T00:58:19.426Z,75.40
2018-07-20T00:59:19.453Z,69.20
2018-07-20T01:00:19.497Z,70.30
2018-07-20T01:01:19.524Z,61.50
2018-07-20T01:02:19.571Z,88.90
2018-07-20T01:03:19.629Z,70.30
2018-07-20T01:04:19.690Z,122.60
2018-07-20T01:05:19.758Z,127.50
2018-07-20T01:06:19.754Z,66.40
2018-07-20T01:07:19.809Z,74.40
2018-07-20T01:08:19.847Z,73.90
2018-07-20T01:09:19.907Z,76.60
2018-07-20T01:10:19.946Z,74.10
2018-07-20T01:11:20.061Z,68.00
2018-07-20T01:12:20.050Z,70.30
2018-07-20T01:13:20.107Z,70.00
2018-07-20T01:14:20.134Z,73.90
2018-07-20T01:15:20.183Z,69.40
2018-07-20T01:16:20.245Z,52.60
2018-07-20T01:17:20.272Z,83.40
2018-07-20T01:18:20.298Z,67.00
2018-07-20T01:19:20.353Z,61.10
2018-07-20T01:20:20.408Z,72.80
2018-07-20T01:21:20.458Z,77.30
2018-07-20T01:22:20.537Z,76.80
2018-07-20T01:23:20.532Z,66.30
2018-07-20T01:24:20.595Z,77.40
2018-07-20T01:25:20.635Z,73.00
2018-07-20T01:26:20.673Z,86.40
2018-07-20T01:27:20.716Z,63.90
2018-07-20T01:28:20.774Z,68.40
2018-07-20T01:29:20.823Z,179.10
2018-07-20T01:30:20.859Z,102.70
2018-07-20T01:31:20.894Z,88.70
2018-07-20T01:32:20.947Z,89.20
2018-07-20T01:33:21.039Z,64.70
2018-07-20T01:34:21.032Z,70.50
2018-07-20T01:35:21.136Z,71.30
2018-07-20T01:36:21.155Z,79.70
2018-07-20T01:37:21.204Z,88.00
2018-07-20T01:38:21.220Z,73.10
2018-07-20T01:39:21.288Z,88.00
2018-07-20T01:40:21.347Z,82.50
2018-07-20T01:41:21.382Z,72.50
2018-07-20T01:42:21.451Z,88.10
2018-07-20T01:43:21.473Z,76.50
2018-07-20T01:44:21.557Z,80.50
2018-07-20T01:45:21.569Z,87.40
2018-07-20T01:46:21.604Z,70.40
2018-07-20T01:47:21.640Z,71.70
2018-07-20T01:48:21.705Z,81.10
2018-07-20T01:49:21.724Z,89.70
2018-07-20T01:50:21.799Z,77.20
2018-07-20T01:51:21.857Z,70.10
2018-07-20T01:52:21.877Z,63.90
2018-07-20T01:53:21.980Z,83.60
2018-07-20T01:54:22.008Z,78.50
2018-07-20T01:55:22.029Z,68.60
2018-07-20T01:56:22.080Z,66.60
2018-07-20T01:57:22.110Z,80.70
2018-07-20T01:58:22.167Z,68.30
2018-07-20T01:59:22.212Z,70.70
2018-07-20T02:00:22.286Z,60.20
2018-07-20T02:01:22.303Z,75.60
2018-07-20T02:02:22.336Z,57.70
2018-07-20T02:03:22.410Z,75.50
2018-07-20T02:04:22.480Z,72.20
2018-07-20T02:05:22.468Z,73.20
2018-07-20T02:06:22.546Z,82.90
2018-07-20T02:07:22.541Z,63.40
2018-07-20T02:08:22.638Z,72.50
2018-07-20T02:09:22.654Z,83.80
2018-07-20T02:10:22.704Z,60.80
2018-07-20T02:11:22.731Z,68.20
2018-07-20T02:12:22.792Z,58.70
2018-07-20T02:13:22.835Z,79.00
2018-07-20T02:14:22.932Z,86.00
2018-07-20T02:15:22.946Z,86.00
2018-07-20T02:16:22.974Z,85.10
2018-07-20T02:17:23.006Z,61.90
2018-07-20T02:18:23.086Z,83.10
2018-07-20T02:19:23.101Z,88.50
2018-07-20T02:20:23.190Z,101.10
2018-07-20T02:21:23.211Z,79.70
2018-07-20T02:22:23.229Z,113.10
2018-07-20T02:23:23.289Z,99.20
2018-07-20T02:24:23.323Z,116.80
2018-07-20T02:25:23.409Z,111.30
2018-07-20T02:26:23.444Z,90.00
2018-07-20T02:27:23.460Z,116.60
2018-07-20T02:28:23.556Z,115.20
2018-07-20T02:29:23.610Z,108.20
2018-07-20T02:30:23.615Z,117.10
2018-07-20T02:31:23.635Z,141.30
2018-07-20T02:32:23.703Z,112.50
2018-07-20T02:33:23.723Z,131.30
2018-07-20T02:34:23.796Z,131.10
2018-07-20T02:35:23.821Z,192.50
2018-07-20T02:36:23.874Z,82.80
2018-07-20T02:37:23.960Z,104.10
2018-07-20T02:38:23.936Z,109.40
2018-07-20T02:39:24.023Z,158.30
2018-07-20T02:40:24.076Z,167.50
2018-07-20T02:41:24.128Z,136.60
2018-07-20T02:42:24.146Z,141.30
2018-07-20T02:43:24.199Z,160.50
2018-07-20T02:44:24.243Z,163.90
2018-07-20T02:45:24.303Z,129.00
2018-07-20T02:46:24.337Z,157.10
2018-07-20T02:47:24.406Z,162.60
2018-07-20T02:48:24.417Z,186.30
2018-07-20T02:49:24.446Z,160.40
2018-07-20T02:50:24.522Z,161.10
2018-07-20T02:51:24.549Z,171.20
2018-07-20T02:52:24.607Z,163.90
2018-07-20T02:53:24.649Z,158.60
2018-07-20T02:54:24.694Z,121.30
2018-07-20T02:55:24.733Z,116.20
2018-07-20T02:56:24.786Z,218.30
2018-07-20T02:57:24.811Z,134.70
2018-07-20T02:58:24.917Z,140.50
2018-07-20T02:59:24.921Z,102.10
2018-07-20T03:00:24.952Z,115.80
2018-07-20T03:01:25.003Z,132.60
2018-07-20T03:02:25.086Z,141.00
2018-07-20T03:03:25.163Z,151.60
2018-07-20T03:04:25.143Z,148.90
2018-07-20T03:05:25.188Z,153.00
2018-07-20T03:06:25.232Z,136.70
2018-07-20T03:07:25.281Z,145.40
2018-07-20T03:08:25.312Z,152.30
2018-07-20T03:09:25.380Z,136.70
2018-07-20T03:10:25.420Z,125.50
2018-07-20T03:11:25.461Z,146.40
2018-07-20T03:12:25.507Z,144.00
2018-07-20T03:13:25.546Z,145.20
2018-07-20T03:14:25.616Z,143.00
2018-07-20T03:15:25.665Z,129.20
2018-07-20T03:16:25.661Z,144.40
2018-07-20T03:17:25.715Z,144.80
2018-07-20T03:18:25.774Z,118.80
2018-07-20T03:19:25.857Z,109.70
2018-07-20T03:20:25.859Z,124.00
2018-07-20T03:21:25.920Z,126.10
2018-07-20T03:22:25.951Z,123.80
2018-07-20T03:23:26.040Z,157.20
2018-07-20T03:24:26.049Z,122.00
2018-07-20T03:25:26.100Z,94.70
2018-07-20T03:26:26.132Z,127.60
2018-07-20T03:27:26.187Z,130.80
2018-07-20T03:28:26.210Z,136.40
2018-07-20T03:29:26.263Z,116.70
2018-07-20T03:30:26.308Z,105.10
2018-07-20T03:31:26.549Z,136.80
2018-07-20T03:32:26.375Z,144.50
2018-07-20T03:33:26.455Z,123.40
2018-07-20T03:34:26.472Z,119.70
2018-07-20T03:35:26.518Z,115.70
2018-07-20T03:36:26.616Z,102.60
2018-07-20T03:37:26.638Z,112.70
2018-07-20T03:38:26.638Z,113.30
2018-07-20T03:39:26.717Z,101.70
2018-07-20T03:40:26.754Z,120.70
2018-07-20T03:41:26.791Z,107.90
2018-07-20T03:42:27.105Z,118.90
2018-07-20T03:43:26.885Z,108.60
2018-07-20T03:44:26.949Z,106.90
2018-07-20T03:45:26.990Z,118.30
2018-07-20T03:46:27.022Z,115.70
2018-07-20T03:47:27.098Z,109.50
2018-07-20T03:48:27.132Z,134.30
2018-07-20T03:49:27.175Z,93.40
2018-07-20T03:50:27.213Z,112.90
2018-07-20T03:51:27.234Z,113.00
2018-07-20T03:52:27.308Z,84.50
2018-07-20T03:53:27.339Z,81.60
2018-07-20T03:54:27.440Z,127.10
2018-07-20T03:55:27.445Z,123.30
2018-07-20T03:56:27.521Z,114.00
2018-07-20T03:57:27.527Z,116.50
2018-07-20T03:58:27.582Z,101.70
2018-07-20T03:59:27.625Z,140.80
2018-07-20T04:00:27.630Z,134.00
2018-07-20T04:01:27.707Z,125.70
2018-07-20T04:02:27.766Z,112.40
2018-07-20T04:03:27.794Z,109.80
2018-07-20T04:04:28.036Z,83.00
2018-07-20T04:05:27.899Z,95.80
2018-07-20T04:06:27.907Z,128.10
2018-07-20T04:07:27.958Z,114.50
2018-07-20T04:08:28.007Z,135.10
2018-07-20T04:09:28.063Z,102.70
2018-07-20T04:10:28.092Z,101.00
2018-07-20T04:11:28.162Z,122.80
2018-07-20T04:12:28.213Z,135.60
2018-07-20T04:13:28.243Z,102.00
2018-07-20T04:14:28.283Z,108.90
2018-07-20T04:15:28.340Z,123.40
2018-07-20T04:16:28.579Z,111.80
2018-07-20T04:17:28.411Z,118.50
2018-07-20T04:18:28.450Z,126.00
2018-07-20T04:19:28.519Z,147.20
2018-07-20T04:20:28.549Z,132.40
2018-07-20T04:21:28.609Z,112.90
2018-07-20T04:22:28.625Z,123.30
2018-07-20T04:23:28.671Z,118.70
2018-07-20T04:24:28.732Z,140.00
2018-07-20T04:25:28.749Z,145.70
2018-07-20T04:26:28.826Z,135.60
2018-07-20T04:27:28.866Z,124.50
2018-07-20T04:28:28.877Z,146.60
2018-07-20T04:29:28.910Z,146.60
2018-07-20T04:30:28.996Z,158.90
2018-07-20T04:31:29.038Z,135.60
2018-07-20T04:32:29.068Z,149.40
2018-07-20T04:33:29.121Z,132.00
2018-07-20T04:34:29.182Z,178.80
2018-07-20T04:35:29.207Z,142.40
2018-07-20T04:36:29.420Z,189.40
2018-07-20T04:37:29.282Z,137.80
2018-07-20T04:38:29.342Z,144.90
2018-07-20T04:39:29.371Z,154.90
2018-07-20T04:40:29.432Z,166.70
2018-07-20T04:41:29.467Z,133.60
2018-07-20T04:42:29.522Z,155.20
2018-07-20T04:43:29.568Z,140.30
2018-07-20T04:44:29.617Z,139.60
2018-07-20T04:45:29.661Z,158.80
2018-07-20T04:46:29.708Z,133.20
2018-07-20T04:47:29.732Z,134.60
2018-07-20T04:48:29.793Z,151.30
2018-07-20T04:49:29.829Z,155.00
2018-07-20T04:50:29.871Z,160.80
2018-07-20T04:51:29.906Z,153.40
2018-07-20T04:52:29.988Z,141.30
2018-07-20T04:53:30.002Z,147.50
2018-07-20T04:54:30.051Z,154.60
2018-07-20T04:55:30.080Z,156.40
2018-07-20T04:56:30.131Z,157.40
2018-07-20T04:57:30.182Z,161.50
2018-07-20T04:58:30.270Z,163.10
2018-07-20T04:59:30.254Z,139.60
2018-07-20T05:00:30.310Z,154.10
2018-07-20T05:01:30.408Z,180.40
2018-07-20T05:02:30.395Z,146.20
2018-07-20T05:03:30.443Z,145.50
2018-07-20T05:04:30.461Z,154.50
2018-07-20T05:05:30.529Z,156.50
2018-07-20T05:06:30.594Z,150.10
2018-07-20T05:07:30.619Z,172.50
2018-07-20T05:08:30.669Z,167.90
2018-07-20T05:09:30.695Z,159.80
2018-07-20T05:10:30.786Z,159.00
2018-07-20T05:11:31.156Z,166.90
2018-07-20T05:12:30.834Z,175.00
2018-07-20T05:13:30.909Z,145.20
2018-07-20T05:14:30.918Z,159.00
2018-07-20T05:15:31.000Z,154.10
2018-07-20T05:16:31.030Z,162.50
2018-07-20T05:17:31.113Z,170.90
2018-07-20T05:18:31.154Z,169.50
2018-07-20T05:19:31.158Z,170.90
2018-07-20T05:20:31.219Z,175.40
2018-07-20T05:21:31.245Z,167.50
2018-07-20T05:22:31.493Z,163.50
2018-07-20T05:23:31.297Z,165.60
2018-07-20T05:24:31.385Z,167.30
2018-07-20T05:25:31.448Z,175.10
2018-07-20T05:26:31.455Z,166.60
2018-07-20T05:27:31.527Z,189.60
2018-07-20T05:28:31.555Z,173.90
2018-07-20T05:29:31.620Z,165.00
2018-07-20T05:30:31.644Z,165.20
2018-07-20T05:31:31.685Z,169.90
2018-07-20T05:32:31.755Z,171.80
2018-07-20T05:33:31.778Z,166.70
2018-07-20T05:34:31.821Z,176.80
2018-07-20T05:35:31.849Z,172.20
2018-07-20T05:36:31.888Z,184.30
2018-07-20T05:37:31.946Z,179.50
2018-07-20T05:38:32.001Z,180.60
2018-07-20T05:39:32.031Z,178.50
2018-07-20T05:40:32.121Z,183.20
2018-07-20T05:41:32.119Z,178.90
2018-07-20T05:42:32.179Z,173.70
2018-07-20T05:43:32.226Z,177.20
2018-07-20T05:44:32.271Z,184.10
2018-07-20T05:45:32.319Z,189.80
2018-07-20T05:46:32.326Z,192.10
2018-07-20T05:47:32.392Z,192.00
2018-07-20T05:48:32.426Z,190.90
2018-07-20T05:49:32.544Z,186.70
2018-07-20T05:50:32.520Z,201.90
2018-07-20T05:51:32.586Z,200.20
2018-07-20T05:52:32.640Z,190.90
2018-07-20T05:53:32.706Z,196.30
2018-07-20T05:54:32.736Z,181.90
2018-07-20T05:55:32.745Z,200.00
2018-07-20T05:56:32.766Z,206.90
2018-07-20T05:57:32.847Z,197.30
2018-07-20T05:58:32.858Z,202.30
2018-07-20T05:59:32.895Z,198.20
2018-07-20T06:00:33.032Z,206.70
2018-07-20T06:01:32.995Z,193.80
2018-07-20T06:02:33.048Z,196.30
2018-07-20T06:03:33.140Z,208.60
2018-07-20T06:04:33.339Z,207.50
2018-07-20T06:05:33.224Z,199.90
2018-07-20T06:06:33.201Z,206.70
2018-07-20T06:07:33.301Z,204.20
2018-07-20T06:08:33.310Z,204.20
2018-07-20T06:09:33.351Z,201.20
2018-07-20T06:10:33.406Z,205.50
2018-07-20T06:11:33.453Z,196.10
2018-07-20T06:12:33.483Z,200.40
2018-07-20T06:13:33.532Z,216.40
2018-07-20T06:14:33.580Z,215.70
2018-07-20T06:15:33.595Z,232.80
2018-07-20T06:16:33.652Z,239.50
2018-07-20T06:17:33.679Z,242.00
2018-07-20T06:18:33.753Z,251.20
2018-07-20T06:19:33.985Z,242.90
2018-07-20T06:20:33.844Z,248.50
2018-07-20T06:21:33.898Z,268.80
2018-07-20T06:22:33.902Z,245.60
2018-07-20T06:23:33.994Z,261.00
2018-07-20T06:24:34.036Z,271.00
2018-07-20T06:25:34.064Z,267.20
2018-07-20T06:26:34.084Z,285.20
2018-07-20T06:27:34.168Z,318.70
2018-07-20T06:28:34.183Z,303.20
2018-07-20T06:29:34.278Z,302.00
2018-07-20T06:30:34.273Z,305.40
2018-07-20T06:31:34.324Z,309.10
2018-07-20T06:32:34.374Z,328.80
2018-07-20T06:33:34.404Z,296.10
2018-07-20T06:34:34.467Z,293.20
2018-07-20T06:35:34.500Z,307.10
2018-07-20T06:36:34.518Z,304.30
2018-07-20T06:37:34.598Z,315.20
2018-07-20T06:38:34.673Z,275.20
2018-07-20T06:39:34.669Z,261.40
2018-07-20T06:40:34.825Z,291.40
2018-07-20T06:41:34.744Z,267.70
2018-07-20T06:42:34.819Z,276.50
2018-07-20T06:43:34.853Z,277.90
2018-07-20T06:44:34.905Z,288.30
2018-07-20T06:45:34.923Z,294.30
2018-07-20T06:46:34.974Z,270.70
2018-07-20T06:47:35.021Z,303.90
2018-07-20T06:48:35.086Z,285.40
2018-07-20T06:49:35.154Z,302.70
2018-07-20T06:50:35.132Z,308.50
2018-07-20T06:51:35.203Z,319.60
2018-07-20T06:52:35.261Z,316.30
2018-07-20T06:53:35.290Z,321.40
2018-07-20T06:54:35.297Z,305.70
2018-07-20T06:55:35.386Z,330.80
2018-07-20T06:56:35.406Z,322.70
2018-07-20T06:57:35.654Z,337.00
2018-07-20T06:58:35.497Z,337.10
2018-07-20T06:59:35.554Z,339.00
2018-07-20T07:00:35.599Z,354.70
2018-07-20T07:01:35.637Z,348.10
2018-07-20T07:02:35.676Z,364.70
2018-07-20T07:03:35.697Z,360.30
2018-07-20T07:04:35.766Z,349.30
2018-07-20T07:05:35.795Z,363.10
2018-07-20T07:06:35.849Z,346.40
2018-07-20T07:07:35.894Z,361.50
2018-07-20T07:08:35.933Z,374.80
2018-07-20T07:09:36.240Z,368.40
2018-07-20T07:10:36.019Z,370.30
2018-07-20T07:11:36.049Z,359.30
2018-07-20T07:12:36.095Z,379.60
2018-07-20T07:13:36.170Z,360.70
2018-07-20T07:14:36.193Z,355.50
2018-07-20T07:15:36.224Z,435.90
2018-07-20T07:16:36.286Z,387.90
2018-07-20T07:17:36.316Z,353.50
2018-07-20T07:18:36.362Z,367.90
2018-07-20T07:19:36.406Z,383.00
2018-07-20T07:20:36.491Z,378.70
2018-07-20T07:21:36.677Z,374.10
2018-07-20T07:22:36.538Z,360.80
2018-07-20T07:23:36.627Z,381.40
2018-07-20T07:24:36.620Z,386.10
2018-07-20T07:25:36.684Z,395.90
2018-07-20T07:26:36.712Z,419.80
2018-07-20T07:27:36.952Z,384.90
2018-07-20T07:28:36.782Z,386.30
2018-07-20T07:29:36.861Z,391.30
2018-07-20T07:30:36.861Z,407.00
2018-07-20T07:31:36.899Z,393.80
2018-07-20T07:32:36.968Z,409.00
2018-07-20T07:33:37.239Z,385.50
2018-07-20T07:34:37.046Z,388.90
2018-07-20T07:35:37.138Z,367.60
2018-07-20T07:36:37.127Z,393.00
2018-07-20T07:37:37.179Z,372.50
2018-07-20T07:38:37.234Z,399.90
2018-07-20T07:39:37.449Z,404.50
2018-07-20T07:40:37.331Z,386.10
2018-07-20T07:41:37.401Z,397.70
2018-07-20T07:42:37.380Z,394.60
2018-07-20T07:43:37.421Z,366.80
2018-07-20T07:44:37.479Z,391.10
2018-07-20T07:45:37.523Z,366.50
2018-07-20T07:46:37.755Z,375.80
2018-07-20T07:47:37.618Z,351.00
2018-07-20T07:48:37.657Z,387.30
2018-07-20T07:49:37.711Z,387.30
2018-07-20T07:50:37.730Z,392.00
2018-07-20T07:51:37.778Z,392.30
2018-07-20T07:52:37.802Z,369.60
2018-07-20T07:53:37.870Z,390.00
2018-07-20T07:54:37.918Z,378.60
2018-07-20T07:55:37.950Z,361.50
2018-07-20T07:56:38.228Z,421.50
2018-07-20T07:57:38.239Z,397.50
2018-07-20T07:58:38.085Z,388.90
2018-07-20T07:59:38.121Z,396.50
2018-07-20T08:00:38.164Z,382.60
2018-07-20T08:01:38.186Z,382.90
2018-07-20T08:02:38.248Z,376.60
2018-07-20T08:03:38.507Z,377.60
2018-07-20T08:04:38.345Z,389.70
2018-07-20T08:05:38.395Z,387.70
2018-07-20T08:06:38.405Z,374.20
2018-07-20T08:07:38.455Z,365.90
2018-07-20T08:08:38.533Z,391.50
2018-07-20T08:09:38.595Z,391.70
2018-07-20T08:10:38.610Z,405.20
2018-07-20T08:11:38.634Z,399.10
2018-07-20T08:12:38.718Z,380.40
2018-07-20T08:13:38.706Z,374.10
2018-07-20T08:14:38.940Z,389.00
2018-07-20T08:15:38.831Z,416.50
2018-07-20T08:16:38.857Z,389.70
2018-07-20T08:17:38.879Z,403.00
2018-07-20T08:18:38.937Z,395.40
2018-07-20T08:19:38.966Z,403.50
2018-07-20T08:20:39.059Z,382.80
2018-07-20T08:21:39.057Z,381.60
2018-07-20T08:22:39.100Z,419.10
2018-07-20T08:23:39.135Z,434.50
2018-07-20T08:24:39.163Z,475.50
2018-07-20T08:25:39.420Z,438.60
2018-07-20T08:26:39.319Z,412.10
2018-07-20T08:27:39.316Z,423.30
2018-07-20T08:28:39.353Z,444.70
2018-07-20T08:29:39.437Z,450.80
2018-07-20T08:30:39.442Z,423.50
2018-07-20T08:31:39.531Z,431.20
2018-07-20T08:32:39.539Z,474.10
2018-07-20T08:33:39.566Z,419.70
2018-07-20T08:34:39.664Z,426.90
2018-07-20T08:35:39.652Z,431.30
2018-07-20T08:36:39.759Z,437.40
2018-07-20T08:37:39.759Z,393.80
2018-07-20T08:38:39.809Z,402.60
2018-07-20T08:39:39.837Z,418.40
2018-07-20T08:40:39.889Z,388.50
2018-07-20T08:41:40.133Z,417.00
2018-07-20T08:42:39.964Z,424.20
2018-07-20T08:43:39.991Z,396.70
2018-07-20T08:44:40.080Z,394.60
2018-07-20T08:45:40.106Z,389.30
2018-07-20T08:46:40.136Z,415.20
2018-07-20T08:47:40.162Z,394.70
2018-07-20T08:48:40.226Z,449.10
2018-07-20T08:49:40.258Z,427.40
2018-07-20T08:50:40.309Z,450.40
2018-07-20T08:51:40.348Z,496.40
2018-07-20T08:52:40.396Z,465.30
2018-07-20T08:53:40.629Z,396.10
2018-07-20T08:54:40.483Z,386.30
2018-07-20T08:55:40.503Z,386.10
2018-07-20T08:56:40.532Z,501.10
2018-07-20T08:57:40.582Z,479.00
2018-07-20T08:58:40.641Z,427.80
2018-07-20T08:59:40.671Z,413.70
2018-07-20T09:00:40.914Z,422.40
2018-07-20T09:01:40.758Z,386.80
2018-07-20T09:02:40.853Z,395.10
2018-07-20T09:03:40.935Z,434.40
2018-07-20T09:04:40.902Z,400.40
2018-07-20T09:05:40.989Z,428.70
2018-07-20T09:06:40.988Z,383.30
2018-07-20T09:07:41.054Z,401.60
2018-07-20T09:08:41.081Z,412.70
2018-07-20T09:09:41.120Z,398.80
2018-07-20T09:10:41.150Z,374.60
2018-07-20T09:11:41.212Z,420.00
2018-07-20T09:12:41.232Z,409.40
2018-07-20T09:13:41.393Z,402.20
2018-07-20T09:14:41.337Z,388.20
2018-07-20T09:15:41.379Z,392.00
2018-07-20T09:16:41.394Z,383.60
2018-07-20T09:17:41.448Z,387.00
2018-07-20T09:18:41.700Z,398.30
2018-07-20T09:19:41.547Z,426.90
2018-07-20T09:20:41.622Z,423.40
2018-07-20T09:21:41.613Z,411.70
2018-07-20T09:22:41.649Z,435.00
2018-07-20T09:23:41.710Z,382.20
2018-07-20T09:24:41.749Z,367.60
2018-07-20T09:25:41.797Z,385.20
2018-07-20T09:26:41.826Z,386.00
2018-07-20T09:27:41.877Z,388.00
2018-07-20T09:28:41.919Z,388.20
2018-07-20T09:29:41.975Z,425.20
2018-07-20T09:30:42.006Z,407.30
2018-07-20T09:31:42.087Z,414.60
2018-07-20T09:32:42.086Z,408.70
2018-07-20T09:33:42.139Z,416.20
2018-07-20T09:34:42.161Z,398.00
2018-07-20T09:35:42.207Z,412.50
2018-07-20T09:36:42.456Z,447.90
2018-07-20T09:37:42.292Z,432.10
2018-07-20T09:38:42.337Z,478.70
2018-07-20T09:39:42.389Z,427.10
2018-07-20T09:40:42.433Z,449.90
2018-07-20T09:41:42.530Z,421.00
2018-07-20T09:42:42.546Z,446.70
2018-07-20T09:43:42.562Z,453.60
2018-07-20T09:44:42.607Z,451.00
2018-07-20T09:45:42.695Z,441.00
2018-07-20T09:46:42.662Z,460.10
2018-07-20T09:47:42.726Z,462.10
2018-07-20T09:48:42.765Z,441.30
2018-07-20T09:49:42.822Z,438.50
2018-07-20T09:50:42.883Z,440.80
2018-07-20T09:51:42.942Z,462.80
2018-07-20T09:52:42.950Z,473.90
2018-07-20T09:53:42.971Z,477.20
2018-07-20T09:54:42.993Z,425.80
2018-07-20T09:55:43.081Z,436.30
2018-07-20T09:56:43.091Z,448.30
2018-07-20T09:57:43.358Z,442.80
2018-07-20T09:58:43.241Z,440.60
2018-07-20T09:59:43.329Z,423.40
2018-07-20T10:00:43.287Z,434.30
2018-07-20T10:01:43.305Z,435.70
2018-07-20T10:02:43.366Z,441.80
2018-07-20T10:03:43.388Z,448.40
2018-07-20T10:04:43.422Z,447.30
2018-07-20T10:05:43.510Z,450.60
2018-07-20T10:06:43.521Z,469.30
2018-07-20T10:07:43.573Z,474.60
2018-07-20T10:08:43.622Z,437.10
2018-07-20T10:09:43.649Z,471.10
2018-07-20T10:10:43.706Z,470.60
2018-07-20T10:11:43.734Z,475.90
2018-07-20T10:12:44.125Z,458.70
2018-07-20T10:13:43.814Z,456.70
2018-07-20T10:14:43.878Z,430.30
2018-07-20T10:15:43.882Z,484.50
2018-07-20T10:16:43.951Z,482.30
2018-07-20T10:17:43.979Z,488.30
2018-07-20T10:18:44.079Z,477.40
2018-07-20T10:19:44.068Z,468.80
2018-07-20T10:20:44.133Z,468.20
2018-07-20T10:21:44.170Z,489.60
2018-07-20T10:22:44.224Z,483.60
2018-07-20T10:23:44.236Z,479.30
2018-07-20T10:24:44.330Z,482.20
2018-07-20T10:25:44.404Z,492.60
2018-07-20T10:26:44.403Z,501.70
2018-07-20T10:28:44.466Z,514.20
2018-07-20T10:29:44.562Z,474.80
2018-07-20T10:30:44.595Z,494.70
2018-07-20T10:31:44.600Z,478.20
2018-07-20T10:32:44.637Z,459.70
2018-07-20T10:33:44.666Z,507.60
2018-07-20T10:34:44.726Z,477.30
2018-07-20T10:35:44.779Z,477.60
2018-07-20T10:36:44.806Z,514.60
2018-07-20T10:37:44.852Z,495.80
2018-07-20T10:38:44.901Z,499.50
2018-07-20T10:39:44.932Z,519.60
2018-07-20T10:40:44.983Z,516.70
2018-07-20T10:41:45.005Z,528.80
2018-07-20T10:42:45.060Z,567.40
2018-07-20T10:43:45.119Z,509.90
2018-07-20T10:44:45.149Z,430.00
2018-07-20T10:45:45.416Z,321.30
2018-07-20T10:46:45.283Z,184.40
2018-07-20T10:47:45.276Z,125.30
2018-07-20T10:48:45.338Z,65.00
2018-07-20T10:49:45.365Z,71.50
2018-07-20T10:50:45.450Z,123.70
2018-07-20T10:51:45.480Z,100.20
2018-07-20T10:52:45.529Z,110.60
2018-07-20T10:53:45.575Z,97.30
2018-07-20T10:54:45.648Z,106.60
2018-07-20T10:55:45.635Z,96.80
2018-07-20T10:56:45.694Z,105.60
2018-07-20T10:57:45.745Z,116.80
2018-07-20T10:58:45.814Z,110.00
2018-07-20T10:59:45.822Z,119.00
2018-07-20T11:00:45.873Z,109.70
2018-07-20T11:01:45.983Z,91.60
2018-07-20T11:02:45.991Z,64.80
2018-07-20T11:03:46.015Z,61.30
2018-07-20T11:04:46.093Z,62.10
2018-07-20T11:05:46.155Z,64.60
2018-07-20T11:06:46.143Z,80.20
2018-07-20T11:07:46.194Z,79.10
2018-07-20T11:08:46.463Z,75.30
2018-07-20T11:09:46.319Z,82.70
2018-07-20T11:10:46.377Z,91.20
2018-07-20T11:11:46.401Z,84.30
2018-07-20T11:12:46.434Z,67.70
2018-07-20T11:13:46.581Z,65.60
2018-07-20T11:14:46.552Z,63.60
2018-07-20T11:15:46.613Z,57.80
2018-07-20T11:16:46.659Z,56.60
2018-07-20T11:17:46.676Z,53.60
2018-07-20T11:18:46.789Z,58.10
2018-07-20T11:19:46.860Z,92.30
2018-07-20T11:20:46.838Z,63.60
2018-07-20T11:21:46.901Z,63.90
2018-07-20T11:22:46.936Z,58.10
2018-07-20T11:23:47.025Z,58.80
2018-07-20T11:24:47.031Z,58.50
2018-07-20T11:25:47.108Z,59.00
2018-07-20T11:26:47.123Z,48.10
2018-07-20T11:27:47.199Z,44.60
2018-07-20T11:28:47.223Z,50.10
2018-07-20T11:29:47.319Z,41.00
2018-07-20T11:30:47.572Z,38.20
2018-07-20T11:31:47.392Z,41.70
2018-07-20T11:32:47.442Z,39.00
2018-07-20T11:33:47.505Z,35.40
2018-07-20T11:34:47.626Z,34.90
2018-07-20T11:35:47.620Z,34.80
2018-07-20T11:36:47.633Z,33.40
2018-07-20T11:37:47.723Z,36.40
2018-07-20T11:38:47.775Z,35.50
2018-07-20T11:39:47.806Z,35.80
2018-07-20T11:40:47.862Z,33.10
2018-07-20T11:41:47.948Z,33.90
2018-07-20T11:42:47.973Z,33.70
2018-07-20T11:43:48.040Z,37.20
2018-07-20T11:44:48.060Z,34.70
2018-07-20T11:45:48.131Z,29.50
2018-07-20T11:46:48.166Z,31.30
2018-07-20T11:47:48.242Z,34.60
2018-07-20T11:48:48.292Z,33.80
2018-07-20T11:49:48.335Z,29.50
2018-07-20T11:50:48.399Z,34.20
2018-07-20T11:51:48.431Z,34.60
2018-07-20T11:52:48.487Z,36.10
2018-07-20T11:53:48.556Z,41.60
2018-07-20T11:54:48.608Z,38.80
2018-07-20T11:55:48.638Z,38.50
2018-07-20T11:56:48.708Z,38.50
2018-07-20T11:57:48.759Z,41.60
2018-07-20T11:58:48.788Z,44.30
2018-07-20T11:59:48.917Z,47.40
2018-07-20T12:00:48.905Z,41.80
2018-07-20T12:01:48.974Z,45.80
2018-07-20T12:02:48.996Z,47.00
2018-07-20T12:03:49.072Z,41.60
2018-07-20T12:04:49.136Z,28.80
2018-07-20T12:05:49.169Z,42.50
2018-07-20T12:06:49.263Z,36.20
2018-07-20T12:07:49.263Z,36.60
2018-07-20T12:08:49.313Z,43.80
2018-07-20T12:09:49.391Z,40.20
2018-07-20T12:10:49.435Z,37.10
2018-07-20T12:11:49.504Z,31.70
2018-07-20T12:12:49.562Z,31.50
2018-07-20T12:13:49.581Z,29.10
2018-07-20T12:14:49.670Z,37.70
2018-07-20T12:15:49.896Z,30.10
2018-07-20T12:16:49.772Z,30.70
2018-07-20T12:17:49.810Z,29.90
2018-07-20T12:18:49.937Z,27.60
2018-07-20T12:19:49.922Z,27.00
2018-07-20T12:20:49.982Z,25.10
2018-07-20T12:21:50.024Z,26.20
2018-07-20T12:22:50.103Z,24.70
2018-07-20T12:23:50.136Z,24.10
2018-07-20T12:24:50.197Z,22.50
2018-07-20T12:25:50.246Z,24.70
2018-07-20T12:26:50.308Z,22.90
2018-07-20T12:27:50.352Z,22.60
2018-07-20T12:28:50.423Z,40.70
2018-07-20T12:29:50.468Z,23.80
2018-07-20T12:30:50.527Z,24.60
2018-07-20T12:31:50.564Z,24.90
2018-07-20T12:32:50.621Z,23.80
2018-07-20T12:33:50.673Z,22.00
2018-07-20T12:34:50.755Z,24.00
2018-07-20T12:35:50.778Z,22.70
2018-07-20T12:36:50.839Z,31.10